createdAt,value
2019-05-15T00:02:36.067Z,102794.63
2019-05-15T00:07:39.678Z,102785.84
2019-05-15T00:12:42.963Z,102778.63
2019-05-15T00:17:48.602Z,102773.74
2019-05-15T00:22:51.658Z,102778.63
2019-05-15T00:27:55.248Z,102778.11
2019-05-15T00:32:58.854Z,102779.80
2019-05-15T00:38:02.148Z,102776.47
2019-05-15T00:43:05.335Z,102772.72
2019-05-15T00:48:09.130Z,102769.22
2019-05-15T00:53:12.286Z,102770.09
2019-05-15T00:58:15.617Z,102763.94
2019-05-15T01:03:19.084Z,102765.06
2019-05-15T01:08:22.318Z,102764.45
2019-05-15T01:13:24.805Z,102764.67
2019-05-15T01:18:29.213Z,102755.88
2019-05-15T01:23:32.597Z,102756.98
2019-05-15T01:28:35.655Z,102752.47
2019-05-15T01:33:39.052Z,102746.83
2019-05-15T01:38:42.863Z,102746.81
2019-05-15T01:43:48.726Z,102752.94
2019-05-15T01:48:51.259Z,102753.53
2019-05-15T01:53:54.473Z,102745.36
2019-05-15T01:58:58.075Z,102743.34
2019-05-15T02:04:01.279Z,102741.98
2019-05-15T02:09:08.299Z,102734.05
2019-05-15T02:14:11.504Z,102736.41
2019-05-15T02:19:14.063Z,102730.94
2019-05-15T02:24:18.910Z,102738.02
2019-05-15T02:29:25.108Z,102732.31
2019-05-15T02:34:29.660Z,102729.56
2019-05-15T02:39:31.059Z,102730.17
2019-05-15T02:44:34.371Z,102719.97
2019-05-15T02:49:39.589Z,102717.15
2019-05-15T02:54:41.942Z,102724.22
2019-05-15T02:59:44.820Z,102719.26
2019-05-15T03:04:48.729Z,102721.95
2019-05-15T03:09:52.045Z,102712.03
2019-05-15T03:14:55.315Z,102711.45
2019-05-15T03:19:59.059Z,102711.27
2019-05-15T03:25:02.289Z,102707.74
2019-05-15T03:30:05.174Z,102712.16
2019-05-15T03:35:14.243Z,102714.42
2019-05-15T03:40:13.837Z,102710.09
2019-05-15T03:45:19.267Z,102708.61
2019-05-15T03:50:22.133Z,102708.77
2019-05-15T03:55:25.074Z,102708.70
2019-05-15T04:00:30.122Z,102705.77
2019-05-15T04:05:34.991Z,102700.78
2019-05-15T04:10:39.975Z,102698.50
2019-05-15T04:15:43.147Z,102701.02
2019-05-15T04:20:49.181Z,102702.02
2019-05-15T04:25:52.059Z,102700.44
2019-05-15T04:30:54.978Z,102692.56
2019-05-15T04:35:59.025Z,102692.11
2019-05-15T04:41:01.795Z,102693.89
2019-05-15T04:46:10.341Z,102697.63
2019-05-15T04:51:13.332Z,102694.35
2019-05-15T04:56:19.068Z,102690.05
2019-05-15T05:01:21.455Z,102683.91
2019-05-15T05:06:25.304Z,102673.39
2019-05-15T05:11:29.255Z,102684.56
2019-05-15T05:16:32.148Z,102678.02
2019-05-15T05:21:35.052Z,102685.92
2019-05-15T05:26:38.433Z,102691.02
2019-05-15T05:31:41.724Z,102691.70
2019-05-15T05:36:44.988Z,102687.08
2019-05-15T05:41:48.785Z,102687.00
2019-05-15T05:46:52.276Z,102682.33
2019-05-15T05:51:55.432Z,102678.58
2019-05-15T05:56:58.672Z,102685.38
2019-05-15T06:02:01.601Z,102685.65
2019-05-15T06:07:09.978Z,102686.28
2019-05-15T06:12:09.490Z,102684.33
2019-05-15T06:17:13.074Z,102692.97
2019-05-15T06:22:18.642Z,102696.93
2019-05-15T06:27:22.295Z,102693.05
2019-05-15T06:32:28.738Z,102696.11
2019-05-15T06:37:30.120Z,102694.08
2019-05-15T06:42:33.386Z,102696.94
2019-05-15T06:47:39.210Z,102691.58
2019-05-15T06:52:42.017Z,102693.47
2019-05-15T06:57:45.242Z,102698.55
2019-05-15T07:02:48.660Z,102688.78
2019-05-15T07:07:52.044Z,102692.12
2019-05-15T07:12:55.312Z,102687.00
2019-05-15T07:17:58.466Z,102682.00
2019-05-15T07:23:01.816Z,102686.26
2019-05-15T07:28:05.059Z,102684.71
2019-05-15T07:33:08.777Z,102678.16
2019-05-15T07:38:12.289Z,102677.94
2019-05-15T07:43:17.953Z,102665.67
2019-05-15T07:48:20.267Z,102673.38
2019-05-15T07:53:23.424Z,102667.90
2019-05-15T07:58:27.809Z,102668.94
2019-05-15T08:03:33.307Z,102665.53
2019-05-15T08:08:39.011Z,102668.27
2019-05-15T08:13:41.690Z,102656.08
2019-05-15T08:18:44.192Z,102660.83
2019-05-15T08:23:48.470Z,102657.48
2019-05-15T08:28:50.839Z,102647.92
2019-05-15T08:33:54.217Z,102649.12
2019-05-15T08:38:59.179Z,102640.35
2019-05-15T08:44:02.497Z,102637.31
2019-05-15T08:49:05.401Z,102633.04
2019-05-15T08:54:08.901Z,102629.31
2019-05-15T08:59:11.813Z,102626.37
2019-05-15T09:04:27.799Z,102620.02
2019-05-15T09:09:21.309Z,102615.88
2019-05-15T09:14:24.612Z,102614.69
2019-05-15T09:19:28.219Z,102620.79
2019-05-15T09:24:30.951Z,102609.75
2019-05-15T09:29:33.762Z,102601.56
2019-05-15T09:34:47.939Z,102609.87
2019-05-15T09:39:42.358Z,102602.41
2019-05-15T09:44:45.612Z,102599.00
2019-05-15T09:49:48.664Z,102601.70
2019-05-15T09:54:52.017Z,102595.02
2019-05-15T09:59:55.316Z,102584.78
2019-05-15T10:05:06.525Z,102584.33
2019-05-15T10:10:03.107Z,102585.08
2019-05-15T10:15:11.191Z,102573.13
2019-05-15T10:20:12.622Z,102570.62
2019-05-15T10:25:15.408Z,102567.98
2019-05-15T10:30:18.842Z,102562.90
2019-05-15T10:35:28.064Z,102563.08
2019-05-15T10:40:29.576Z,102550.40
2019-05-15T10:45:31.782Z,102548.06
2019-05-15T10:50:34.810Z,102546.83
2019-05-15T10:55:39.507Z,102538.66
2019-05-15T11:00:43.555Z,102535.95
2019-05-15T11:05:48.928Z,102522.69
2019-05-15T11:10:50.924Z,102519.98
2019-05-15T11:15:54.195Z,102517.04
2019-05-15T11:20:59.356Z,102509.66
2019-05-15T11:26:01.893Z,102503.81
2019-05-15T11:31:04.977Z,102498.34
2019-05-15T11:36:08.542Z,102495.46
2019-05-15T11:41:11.708Z,102497.49
2019-05-15T11:46:15.200Z,102498.03
2019-05-15T11:51:18.464Z,102492.70
2019-05-15T11:56:21.624Z,102494.71
2019-05-15T12:01:24.670Z,102489.36
2019-05-15T12:06:29.204Z,102490.52
2019-05-15T12:11:37.071Z,102479.80
2019-05-15T12:16:39.910Z,102485.62
2019-05-15T12:21:43.551Z,102483.69
2019-05-15T12:26:48.927Z,102476.59
2019-05-15T12:31:52.139Z,102484.09
2019-05-15T12:36:58.081Z,102473.38
2019-05-15T13:02:21.004Z,102453.33
2019-05-15T13:07:23.862Z,102455.69
2019-05-15T13:12:28.822Z,102452.19
2019-05-15T13:17:32.108Z,102449.63
2019-05-15T13:22:36.556Z,102443.97
2019-05-15T13:27:40.692Z,102430.97
2019-05-15T13:32:44.877Z,102435.45
2019-05-15T13:37:49.453Z,102424.77
2019-05-15T13:42:54.555Z,102433.55
2019-05-15T13:47:58.078Z,102424.50
2019-05-15T13:53:00.766Z,102424.28
2019-05-15T13:58:04.085Z,102424.58
2019-05-15T14:03:09.216Z,102424.19
2019-05-15T14:08:12.440Z,102420.39
2019-05-15T14:13:15.656Z,102420.05
2019-05-15T14:18:19.667Z,102414.89
2019-05-15T14:23:24.180Z,102418.61
2019-05-15T14:28:28.393Z,102410.22
2019-05-15T14:33:31.801Z,102413.09
2019-05-15T14:38:34.996Z,102408.55
2019-05-15T14:43:38.253Z,102409.47
2019-05-15T14:48:41.387Z,102408.63
2019-05-15T14:53:44.589Z,102402.50
2019-05-15T14:58:48.024Z,102400.61
2019-05-15T15:03:51.557Z,102394.87
2019-05-15T15:08:54.942Z,102389.41
2019-05-15T15:13:58.227Z,102390.18
2019-05-15T15:19:01.056Z,102390.05
2019-05-15T15:24:04.978Z,102386.08
2019-05-15T15:29:08.627Z,102379.39
2019-05-15T15:34:11.371Z,102379.30
2019-05-15T15:39:14.885Z,102372.50
2019-05-15T15:44:18.291Z,102381.62
2019-05-15T15:49:22.233Z,102374.84
2019-05-15T15:54:27.981Z,102382.66
2019-05-15T15:59:30.120Z,102378.72
2019-05-15T16:04:33.705Z,102371.41
2019-05-15T16:09:38.769Z,102356.09
2019-05-15T16:14:42.211Z,102361.14
2019-05-15T16:19:45.307Z,102354.33
2019-05-15T16:24:49.170Z,102349.84
2019-05-15T16:29:52.667Z,102349.26
2019-05-15T16:34:55.899Z,102340.14
2019-05-15T16:40:00.037Z,102335.34
2019-05-15T16:45:03.312Z,102338.34
2019-05-15T16:50:07.075Z,102345.91
2019-05-15T16:55:10.572Z,102336.95
2019-05-15T17:00:14.584Z,102348.08
2019-05-15T17:05:20.354Z,102336.14
2019-05-15T17:10:23.298Z,102335.63
2019-05-15T17:15:28.009Z,102335.62
2019-05-15T17:20:31.531Z,102339.52
2019-05-15T17:25:34.031Z,102344.77
2019-05-15T17:30:38.266Z,102344.86
2019-05-15T17:35:41.052Z,102341.83
2019-05-15T17:40:43.964Z,102343.48
2019-05-15T17:45:48.264Z,102339.43
2019-05-15T17:50:52.696Z,102340.26
2019-05-15T17:55:58.455Z,102339.97
2019-05-15T18:01:01.240Z,102335.42
2019-05-15T18:06:04.527Z,102338.75
2019-05-15T18:11:09.056Z,102335.04
2019-05-15T18:16:13.896Z,102337.29
2019-05-15T18:21:20.086Z,102341.06
2019-05-15T18:26:24.373Z,102346.47
2019-05-15T18:31:28.608Z,102351.41
2019-05-15T18:36:32.172Z,102358.51
2019-05-15T18:41:37.642Z,102357.78
2019-05-15T18:46:40.945Z,102366.72
2019-05-15T18:51:44.360Z,102365.30
2019-05-15T18:56:49.046Z,102358.69
2019-05-15T19:01:52.441Z,102370.55
2019-05-15T19:06:58.262Z,102369.19
2019-05-15T19:12:01.581Z,102364.67
2019-05-15T19:17:05.031Z,102363.77
2019-05-15T19:22:09.135Z,102366.32
2019-05-15T19:27:12.794Z,102370.11
2019-05-15T19:32:17.701Z,102367.23
2019-05-15T19:37:21.399Z,102373.58
2019-05-15T19:42:24.461Z,102374.53
2019-05-15T19:47:27.702Z,102369.86
2019-05-15T19:52:30.371Z,102367.64
2019-05-15T19:57:34.131Z,102370.56
2019-05-15T20:02:38.298Z,102378.09
2019-05-15T20:07:41.808Z,102373.58
2019-05-15T20:12:47.606Z,102371.30
2019-05-15T20:17:50.861Z,102372.33
2019-05-15T20:22:54.134Z,102367.11
2019-05-15T20:27:57.371Z,102362.23
2019-05-15T20:33:00.740Z,102364.38
2019-05-15T20:38:04.541Z,102356.70
2019-05-15T20:43:08.423Z,102356.94
2019-05-15T20:48:12.628Z,102357.31
2019-05-15T20:53:17.984Z,102348.83
2019-05-15T20:58:20.987Z,102353.63
2019-05-15T21:03:23.561Z,102348.63
2019-05-15T21:08:28.730Z,102337.09
2019-05-15T21:13:32.268Z,102336.56
2019-05-15T21:18:34.802Z,102340.41
2019-05-15T21:23:38.651Z,102343.52
2019-05-15T21:28:42.829Z,102341.53
2019-05-15T21:33:48.166Z,102342.64
2019-05-15T21:38:49.988Z,102333.62
2019-05-15T21:43:53.274Z,102338.30
2019-05-15T21:48:57.701Z,102326.03
2019-05-15T21:54:01.933Z,102331.25
2019-05-15T21:59:07.622Z,102328.22
2019-05-15T22:04:10.791Z,102323.77
2019-05-15T22:09:18.342Z,102322.89
2019-05-15T22:14:21.417Z,102326.19
2019-05-15T22:19:24.820Z,102311.42
2019-05-15T22:24:28.535Z,102317.86
2019-05-15T22:29:31.279Z,102312.30
2019-05-15T22:34:34.539Z,102299.84
2019-05-15T22:39:38.566Z,102303.11
2019-05-15T22:44:41.188Z,102290.64
2019-05-15T22:49:44.727Z,102292.02
2019-05-15T22:54:47.996Z,102281.39
2019-05-15T22:59:52.578Z,102284.54
2019-05-15T23:04:55.636Z,102276.45
2019-05-15T23:09:58.888Z,102272.96
2019-05-15T23:15:02.674Z,102264.90
2019-05-15T23:20:08.677Z,102252.12
2019-05-15T23:25:12.260Z,102242.30
2019-05-15T23:30:18.455Z,102241.37
2019-05-15T23:35:34.368Z,102233.36
2019-05-15T23:40:25.921Z,102236.20
2019-05-15T23:45:29.007Z,102239.11
2019-05-15T23:50:32.693Z,102236.55
2019-05-15T23:55:36.988Z,102234.66
